sensor_id;sensor_type;location;lat;lon;timestamp;P1;durP1;ratioP1;P2;durP2;ratioP2
37495;SDS011;23346;52.088;4.746;2023-05-07T00:01:14;93.43;;;36.83;;
37495;SDS011;23346;52.088;4.746;2023-05-07T00:03:40;83.50;;;37.47;;
37495;SDS011;23346;52.088;4.746;2023-05-07T00:06:06;86.93;;;38.80;;
37495;SDS011;23346;52.088;4.746;2023-05-07T00:08:32;88.63;;;36.60;;
37495;SDS011;23346;52.088;4.746;2023-05-07T00:10:58;84.57;;;38.03;;
37495;SDS011;23346;52.088;4.746;2023-05-07T00:13:24;79.10;;;36.40;;
37495;SDS011;23346;52.088;4.746;2023-05-07T00:15:50;76.73;;;36.10;;
37495;SDS011;23346;52.088;4.746;2023-05-07T00:18:16;83.90;;;35.93;;
37495;SDS011;23346;52.088;4.746;2023-05-07T00:20:45;83.60;;;35.40;;
37495;SDS011;23346;52.088;4.746;2023-05-07T00:23:11;73.67;;;34.67;;
37495;SDS011;23346;52.088;4.746;2023-05-07T00:25:37;78.67;;;34.23;;
37495;SDS011;23346;52.088;4.746;2023-05-07T00:28:03;79.43;;;33.43;;
37495;SDS011;23346;52.088;4.746;2023-05-07T00:30:29;79.87;;;34.93;;
37495;SDS011;23346;52.088;4.746;2023-05-07T00:32:55;81.43;;;36.05;;
37495;SDS011;23346;52.088;4.746;2023-05-07T00:35:21;79.97;;;35.20;;
37495;SDS011;23346;52.088;4.746;2023-05-07T00:37:47;86.53;;;36.00;;
37495;SDS011;23346;52.088;4.746;2023-05-07T00:40:13;87.97;;;36.97;;
37495;SDS011;23346;52.088;4.746;2023-05-07T00:42:39;96.73;;;37.57;;
37495;SDS011;23346;52.088;4.746;2023-05-07T00:45:06;90.63;;;39.77;;
37495;SDS011;23346;52.088;4.746;2023-05-07T00:47:32;97.07;;;39.07;;
37495;SDS011;23346;52.088;4.746;2023-05-07T00:49:58;89.10;;;38.53;;
37495;SDS011;23346;52.088;4.746;2023-05-07T00:52:25;101.97;;;40.73;;
37495;SDS011;23346;52.088;4.746;2023-05-07T00:54:51;92.93;;;42.33;;
37495;SDS011;23346;52.088;4.746;2023-05-07T00:57:18;102.10;;;42.10;;
37495;SDS011;23346;52.088;4.746;2023-05-07T00:59:45;100.63;;;43.77;;
37495;SDS011;23346;52.088;4.746;2023-05-07T01:02:11;109.07;;;45.17;;
37495;SDS011;23346;52.088;4.746;2023-05-07T01:04:37;109.90;;;46.07;;
37495;SDS011;23346;52.088;4.746;2023-05-07T01:07:03;110.80;;;44.60;;
37495;SDS011;23346;52.088;4.746;2023-05-07T01:09:29;107.87;;;46.23;;
37495;SDS011;23346;52.088;4.746;2023-05-07T01:11:55;109.30;;;47.37;;
37495;SDS011;23346;52.088;4.746;2023-05-07T01:14:22;107.03;;;46.40;;
37495;SDS011;23346;52.088;4.746;2023-05-07T01:16:48;109.03;;;44.47;;
37495;SDS011;23346;52.088;4.746;2023-05-07T01:19:16;106.37;;;44.63;;
37495;SDS011;23346;52.088;4.746;2023-05-07T01:21:44;94.63;;;42.93;;
37495;SDS011;23346;52.088;4.746;2023-05-07T01:24:11;99.10;;;45.00;;
37495;SDS011;23346;52.088;4.746;2023-05-07T01:26:37;103.57;;;43.27;;
37495;SDS011;23346;52.088;4.746;2023-05-07T01:29:03;100.10;;;44.67;;
37495;SDS011;23346;52.088;4.746;2023-05-07T01:31:29;107.33;;;45.37;;
37495;SDS011;23346;52.088;4.746;2023-05-07T01:33:55;103.97;;;44.27;;
37495;SDS011;23346;52.088;4.746;2023-05-07T01:36:22;100.40;;;42.70;;
37495;SDS011;23346;52.088;4.746;2023-05-07T01:38:50;92.57;;;42.83;;
37495;SDS011;23346;52.088;4.746;2023-05-07T01:41:17;92.60;;;41.43;;
37495;SDS011;23346;52.088;4.746;2023-05-07T01:43:44;85.60;;;40.07;;
37495;SDS011;23346;52.088;4.746;2023-05-07T01:46:11;89.77;;;41.20;;
37495;SDS011;23346;52.088;4.746;2023-05-07T01:48:37;83.87;;;41.50;;
37495;SDS011;23346;52.088;4.746;2023-05-07T01:51:04;90.07;;;42.43;;
37495;SDS011;23346;52.088;4.746;2023-05-07T01:53:37;83.63;;;40.13;;
37495;SDS011;23346;52.088;4.746;2023-05-07T01:56:04;81.43;;;41.17;;
37495;SDS011;23346;52.088;4.746;2023-05-07T01:58:30;79.22;;;40.88;;
37495;SDS011;23346;52.088;4.746;2023-05-07T02:00:56;79.80;;;41.07;;
37495;SDS011;23346;52.088;4.746;2023-05-07T02:03:22;78.77;;;40.67;;
37495;SDS011;23346;52.088;4.746;2023-05-07T02:05:48;77.93;;;39.23;;
37495;SDS011;23346;52.088;4.746;2023-05-07T02:08:14;79.70;;;39.90;;
37495;SDS011;23346;52.088;4.746;2023-05-07T02:10:40;73.13;;;39.27;;
37495;SDS011;23346;52.088;4.746;2023-05-07T02:13:06;81.70;;;40.27;;
37495;SDS011;23346;52.088;4.746;2023-05-07T02:15:32;76.33;;;40.23;;
37495;SDS011;23346;52.088;4.746;2023-05-07T02:18:02;71.27;;;38.87;;
37495;SDS011;23346;52.088;4.746;2023-05-07T02:20:28;74.73;;;38.40;;
37495;SDS011;23346;52.088;4.746;2023-05-07T02:22:54;80.30;;;42.03;;
37495;SDS011;23346;52.088;4.746;2023-05-07T02:25:20;70.10;;;37.70;;
37495;SDS011;23346;52.088;4.746;2023-05-07T02:27:46;76.50;;;39.72;;
37495;SDS011;23346;52.088;4.746;2023-05-07T02:30:12;64.47;;;35.45;;
37495;SDS011;23346;52.088;4.746;2023-05-07T02:32:38;67.17;;;38.13;;
37495;SDS011;23346;52.088;4.746;2023-05-07T02:35:04;76.87;;;39.53;;
37495;SDS011;23346;52.088;4.746;2023-05-07T02:37:31;70.53;;;38.17;;
37495;SDS011;23346;52.088;4.746;2023-05-07T02:39:56;76.27;;;39.80;;
37495;SDS011;23346;52.088;4.746;2023-05-07T02:42:22;77.60;;;38.27;;
37495;SDS011;23346;52.088;4.746;2023-05-07T02:44:48;68.10;;;38.27;;
37495;SDS011;23346;52.088;4.746;2023-05-07T02:47:14;79.73;;;38.30;;
37495;SDS011;23346;52.088;4.746;2023-05-07T02:49:40;72.20;;;38.90;;
37495;SDS011;23346;52.088;4.746;2023-05-07T02:52:06;78.93;;;37.67;;
37495;SDS011;23346;52.088;4.746;2023-05-07T02:54:32;75.30;;;39.10;;
37495;SDS011;23346;52.088;4.746;2023-05-07T02:56:58;75.83;;;38.83;;
37495;SDS011;23346;52.088;4.746;2023-05-07T02:59:25;68.47;;;38.05;;
37495;SDS011;23346;52.088;4.746;2023-05-07T03:01:51;78.80;;;40.30;;
37495;SDS011;23346;52.088;4.746;2023-05-07T03:04:17;71.00;;;37.57;;
37495;SDS011;23346;52.088;4.746;2023-05-07T03:06:43;72.97;;;37.93;;
37495;SDS011;23346;52.088;4.746;2023-05-07T03:09:09;67.53;;;36.83;;
37495;SDS011;23346;52.088;4.746;2023-05-07T03:11:35;69.43;;;38.43;;
37495;SDS011;23346;52.088;4.746;2023-05-07T03:14:02;69.03;;;37.33;;
37495;SDS011;23346;52.088;4.746;2023-05-07T03:16:28;68.63;;;38.13;;
37495;SDS011;23346;52.088;4.746;2023-05-07T03:18:53;71.57;;;37.67;;
37495;SDS011;23346;52.088;4.746;2023-05-07T03:21:19;64.43;;;36.80;;
37495;SDS011;23346;52.088;4.746;2023-05-07T03:23:45;64.60;;;36.63;;
37495;SDS011;23346;52.088;4.746;2023-05-07T03:26:11;67.27;;;36.80;;
37495;SDS011;23346;52.088;4.746;2023-05-07T03:28:37;66.20;;;36.80;;
37495;SDS011;23346;52.088;4.746;2023-05-07T03:31:03;60.00;;;34.73;;
37495;SDS011;23346;52.088;4.746;2023-05-07T03:33:29;65.40;;;36.90;;
37495;SDS011;23346;52.088;4.746;2023-05-07T03:35:55;66.67;;;34.63;;
37495;SDS011;23346;52.088;4.746;2023-05-07T03:38:21;67.35;;;36.60;;
37495;SDS011;23346;52.088;4.746;2023-05-07T03:40:47;58.93;;;33.50;;
37495;SDS011;23346;52.088;4.746;2023-05-07T03:43:13;64.07;;;34.83;;
37495;SDS011;23346;52.088;4.746;2023-05-07T03:45:39;63.70;;;34.87;;
37495;SDS011;23346;52.088;4.746;2023-05-07T03:48:05;63.73;;;34.70;;
37495;SDS011;23346;52.088;4.746;2023-05-07T03:50:31;57.07;;;33.17;;
37495;SDS011;23346;52.088;4.746;2023-05-07T03:52:57;60.57;;;33.37;;
37495;SDS011;23346;52.088;4.746;2023-05-07T03:55:23;60.00;;;34.40;;
37495;SDS011;23346;52.088;4.746;2023-05-07T03:57:49;65.20;;;33.88;;
37495;SDS011;23346;52.088;4.746;2023-05-07T04:00:15;55.22;;;32.78;;
37495;SDS011;23346;52.088;4.746;2023-05-07T04:02:41;64.33;;;33.13;;
37495;SDS011;23346;52.088;4.746;2023-05-07T04:05:07;64.27;;;33.53;;
37495;SDS011;23346;52.088;4.746;2023-05-07T04:07:34;62.93;;;32.67;;
37495;SDS011;23346;52.088;4.746;2023-05-07T04:10:00;64.80;;;33.17;;
37495;SDS011;23346;52.088;4.746;2023-05-07T04:12:26;65.13;;;34.70;;
37495;SDS011;23346;52.088;4.746;2023-05-07T04:14:52;61.50;;;34.40;;
37495;SDS011;23346;52.088;4.746;2023-05-07T04:17:18;58.28;;;32.75;;
37495;SDS011;23346;52.088;4.746;2023-05-07T04:19:44;67.63;;;34.17;;
37495;SDS011;23346;52.088;4.746;2023-05-07T04:22:10;60.60;;;34.37;;
37495;SDS011;23346;52.088;4.746;2023-05-07T04:24:37;57.63;;;33.13;;
37495;SDS011;23346;52.088;4.746;2023-05-07T04:27:02;62.10;;;33.95;;
37495;SDS011;23346;52.088;4.746;2023-05-07T04:29:29;62.47;;;34.10;;
37495;SDS011;23346;52.088;4.746;2023-05-07T04:31:55;59.20;;;31.90;;
37495;SDS011;23346;52.088;4.746;2023-05-07T04:34:21;68.63;;;33.63;;
37495;SDS011;23346;52.088;4.746;2023-05-07T04:36:47;55.65;;;32.15;;
37495;SDS011;23346;52.088;4.746;2023-05-07T04:39:13;62.03;;;33.10;;
37495;SDS011;23346;52.088;4.746;2023-05-07T04:41:39;65.93;;;34.20;;
37495;SDS011;23346;52.088;4.746;2023-05-07T04:44:05;64.35;;;33.33;;
37495;SDS011;23346;52.088;4.746;2023-05-07T04:46:31;65.60;;;31.83;;
37495;SDS011;23346;52.088;4.746;2023-05-07T04:48:57;66.97;;;32.60;;
37495;SDS011;23346;52.088;4.746;2023-05-07T04:51:23;67.27;;;33.23;;
37495;SDS011;23346;52.088;4.746;2023-05-07T04:53:50;66.17;;;33.17;;
37495;SDS011;23346;52.088;4.746;2023-05-07T04:56:16;65.63;;;32.63;;
37495;SDS011;23346;52.088;4.746;2023-05-07T04:58:42;71.03;;;34.40;;
37495;SDS011;23346;52.088;4.746;2023-05-07T05:01:08;67.57;;;33.78;;
37495;SDS011;23346;52.088;4.746;2023-05-07T05:03:34;66.27;;;34.10;;
37495;SDS011;23346;52.088;4.746;2023-05-07T05:06:00;71.23;;;34.67;;
37495;SDS011;23346;52.088;4.746;2023-05-07T05:08:25;69.47;;;34.30;;
37495;SDS011;23346;52.088;4.746;2023-05-07T05:10:51;65.72;;;34.92;;
37495;SDS011;23346;52.088;4.746;2023-05-07T05:13:17;62.60;;;33.63;;
37495;SDS011;23346;52.088;4.746;2023-05-07T05:15:43;60.42;;;33.42;;
37495;SDS011;23346;52.088;4.746;2023-05-07T05:18:10;73.07;;;35.83;;
37495;SDS011;23346;52.088;4.746;2023-05-07T05:20:36;71.43;;;35.33;;
37495;SDS011;23346;52.088;4.746;2023-05-07T05:23:02;68.85;;;35.08;;
37495;SDS011;23346;52.088;4.746;2023-05-07T05:25:28;69.65;;;35.17;;
37495;SDS011;23346;52.088;4.746;2023-05-07T05:27:54;81.47;;;38.25;;
37495;SDS011;23346;52.088;4.746;2023-05-07T05:30:20;75.10;;;37.10;;
37495;SDS011;23346;52.088;4.746;2023-05-07T05:32:46;76.35;;;37.20;;
37495;SDS011;23346;52.088;4.746;2023-05-07T05:35:12;71.57;;;36.53;;
37495;SDS011;23346;52.088;4.746;2023-05-07T05:37:38;79.05;;;38.08;;
37495;SDS011;23346;52.088;4.746;2023-05-07T05:40:04;69.93;;;36.65;;
37495;SDS011;23346;52.088;4.746;2023-05-07T05:42:30;76.72;;;38.45;;
37495;SDS011;23346;52.088;4.746;2023-05-07T05:44:56;78.82;;;38.90;;
37495;SDS011;23346;52.088;4.746;2023-05-07T05:47:22;83.75;;;38.17;;
37495;SDS011;23346;52.088;4.746;2023-05-07T05:49:48;76.47;;;38.13;;
37495;SDS011;23346;52.088;4.746;2023-05-07T05:52:14;79.43;;;38.95;;
37495;SDS011;23346;52.088;4.746;2023-05-07T05:54:41;72.05;;;38.67;;
37495;SDS011;23346;52.088;4.746;2023-05-07T05:57:07;78.82;;;38.60;;
37495;SDS011;23346;52.088;4.746;2023-05-07T05:59:33;77.65;;;39.60;;
37495;SDS011;23346;52.088;4.746;2023-05-07T06:01:59;86.82;;;40.25;;
37495;SDS011;23346;52.088;4.746;2023-05-07T06:04:25;82.53;;;40.47;;
37495;SDS011;23346;52.088;4.746;2023-05-07T06:06:51;85.88;;;39.97;;
37495;SDS011;23346;52.088;4.746;2023-05-07T06:09:17;85.15;;;42.00;;
37495;SDS011;23346;52.088;4.746;2023-05-07T06:11:43;91.30;;;42.75;;
37495;SDS011;23346;52.088;4.746;2023-05-07T06:14:09;92.68;;;44.63;;
37495;SDS011;23346;52.088;4.746;2023-05-07T06:16:35;85.25;;;42.00;;
37495;SDS011;23346;52.088;4.746;2023-05-07T06:19:02;95.47;;;45.45;;
37495;SDS011;23346;52.088;4.746;2023-05-07T06:21:28;83.80;;;43.42;;
37495;SDS011;23346;52.088;4.746;2023-05-07T06:23:55;86.15;;;44.15;;
37495;SDS011;23346;52.088;4.746;2023-05-07T06:26:21;89.88;;;43.03;;
37495;SDS011;23346;52.088;4.746;2023-05-07T06:28:47;85.95;;;41.30;;
37495;SDS011;23346;52.088;4.746;2023-05-07T06:31:14;90.05;;;45.75;;
37495;SDS011;23346;52.088;4.746;2023-05-07T06:33:40;87.07;;;45.03;;
37495;SDS011;23346;52.088;4.746;2023-05-07T06:36:06;97.72;;;46.95;;
37495;SDS011;23346;52.088;4.746;2023-05-07T06:38:32;88.93;;;45.50;;
37495;SDS011;23346;52.088;4.746;2023-05-07T06:40:57;83.47;;;42.50;;
37495;SDS011;23346;52.088;4.746;2023-05-07T06:43:23;88.45;;;46.92;;
37495;SDS011;23346;52.088;4.746;2023-05-07T06:45:49;83.97;;;46.10;;
37495;SDS011;23346;52.088;4.746;2023-05-07T06:48:15;89.78;;;46.55;;
37495;SDS011;23346;52.088;4.746;2023-05-07T06:50:41;81.57;;;43.85;;
37495;SDS011;23346;52.088;4.746;2023-05-07T06:53:07;84.43;;;44.30;;
37495;SDS011;23346;52.088;4.746;2023-05-07T06:55:33;81.05;;;43.30;;
37495;SDS011;23346;52.088;4.746;2023-05-07T06:57:59;68.65;;;41.03;;
37495;SDS011;23346;52.088;4.746;2023-05-07T07:00:26;78.90;;;43.17;;
37495;SDS011;23346;52.088;4.746;2023-05-07T07:02:52;71.00;;;42.90;;
37495;SDS011;23346;52.088;4.746;2023-05-07T07:05:18;82.80;;;44.03;;
37495;SDS011;23346;52.088;4.746;2023-05-07T07:07:44;73.70;;;41.88;;
37495;SDS011;23346;52.088;4.746;2023-05-07T07:10:17;69.45;;;41.25;;
37495;SDS011;23346;52.088;4.746;2023-05-07T07:12:43;70.25;;;40.30;;
37495;SDS011;23346;52.088;4.746;2023-05-07T07:15:09;68.75;;;39.65;;
37495;SDS011;23346;52.088;4.746;2023-05-07T07:17:35;62.72;;;37.58;;
37495;SDS011;23346;52.088;4.746;2023-05-07T07:20:01;62.15;;;36.28;;
37495;SDS011;23346;52.088;4.746;2023-05-07T07:22:27;57.33;;;37.33;;
37495;SDS011;23346;52.088;4.746;2023-05-07T07:24:53;56.00;;;35.50;;
37495;SDS011;23346;52.088;4.746;2023-05-07T07:27:19;56.00;;;36.05;;
37495;SDS011;23346;52.088;4.746;2023-05-07T07:29:45;50.58;;;33.50;;
37495;SDS011;23346;52.088;4.746;2023-05-07T07:32:11;54.35;;;31.33;;
37495;SDS011;23346;52.088;4.746;2023-05-07T07:34:37;52.92;;;32.33;;
37495;SDS011;23346;52.088;4.746;2023-05-07T07:37:03;46.80;;;29.92;;
37495;SDS011;23346;52.088;4.746;2023-05-07T07:39:34;48.83;;;30.77;;
37495;SDS011;23346;52.088;4.746;2023-05-07T07:42:02;43.33;;;29.63;;
37495;SDS011;23346;52.088;4.746;2023-05-07T07:44:28;41.83;;;27.90;;
37495;SDS011;23346;52.088;4.746;2023-05-07T07:46:54;41.47;;;28.60;;
37495;SDS011;23346;52.088;4.746;2023-05-07T07:49:20;46.42;;;28.70;;
37495;SDS011;23346;52.088;4.746;2023-05-07T07:51:46;43.70;;;28.02;;
37495;SDS011;23346;52.088;4.746;2023-05-07T07:54:12;40.67;;;27.48;;
37495;SDS011;23346;52.088;4.746;2023-05-07T07:56:38;37.03;;;27.02;;
37495;SDS011;23346;52.088;4.746;2023-05-07T07:59:04;40.28;;;26.70;;
37495;SDS011;23346;52.088;4.746;2023-05-07T08:01:30;39.90;;;27.60;;
37495;SDS011;23346;52.088;4.746;2023-05-07T08:03:56;34.03;;;25.10;;
37495;SDS011;23346;52.088;4.746;2023-05-07T08:06:25;35.25;;;24.35;;
37495;SDS011;23346;52.088;4.746;2023-05-07T08:08:51;35.30;;;24.77;;
37495;SDS011;23346;52.088;4.746;2023-05-07T08:11:17;32.63;;;22.45;;
37495;SDS011;23346;52.088;4.746;2023-05-07T08:13:43;31.10;;;23.23;;
37495;SDS011;23346;52.088;4.746;2023-05-07T08:16:10;25.40;;;19.40;;
37495;SDS011;23346;52.088;4.746;2023-05-07T08:18:36;25.45;;;17.27;;
37495;SDS011;23346;52.088;4.746;2023-05-07T08:21:02;22.55;;;16.13;;
37495;SDS011;23346;52.088;4.746;2023-05-07T08:23:28;17.65;;;13.38;;
37495;SDS011;23346;52.088;4.746;2023-05-07T08:25:54;18.20;;;12.48;;
37495;SDS011;23346;52.088;4.746;2023-05-07T08:28:20;19.90;;;12.00;;
37495;SDS011;23346;52.088;4.746;2023-05-07T08:30:46;20.35;;;13.10;;
37495;SDS011;23346;52.088;4.746;2023-05-07T08:33:12;17.65;;;12.48;;
37495;SDS011;23346;52.088;4.746;2023-05-07T08:35:38;15.57;;;11.13;;
37495;SDS011;23346;52.088;4.746;2023-05-07T08:38:04;13.52;;;10.52;;
37495;SDS011;23346;52.088;4.746;2023-05-07T08:40:31;14.85;;;9.00;;
37495;SDS011;23346;52.088;4.746;2023-05-07T08:43:00;10.57;;;7.93;;
37495;SDS011;23346;52.088;4.746;2023-05-07T08:45:26;11.13;;;7.93;;
37495;SDS011;23346;52.088;4.746;2023-05-07T08:47:55;13.25;;;8.27;;
37495;SDS011;23346;52.088;4.746;2023-05-07T08:50:23;9.88;;;6.55;;
37495;SDS011;23346;52.088;4.746;2023-05-07T08:52:49;13.13;;;7.97;;
37495;SDS011;23346;52.088;4.746;2023-05-07T08:55:15;11.98;;;8.23;;
37495;SDS011;23346;52.088;4.746;2023-05-07T08:57:41;13.57;;;7.70;;
37495;SDS011;23346;52.088;4.746;2023-05-07T09:00:07;10.50;;;8.18;;
37495;SDS011;23346;52.088;4.746;2023-05-07T09:02:35;12.35;;;8.43;;
37495;SDS011;23346;52.088;4.746;2023-05-07T09:05:01;11.18;;;7.72;;
37495;SDS011;23346;52.088;4.746;2023-05-07T09:07:27;14.45;;;8.00;;
37495;SDS011;23346;52.088;4.746;2023-05-07T09:09:53;11.50;;;8.10;;
37495;SDS011;23346;52.088;4.746;2023-05-07T09:12:20;12.98;;;7.63;;
37495;SDS011;23346;52.088;4.746;2023-05-07T09:14:46;12.80;;;7.32;;
37495;SDS011;23346;52.088;4.746;2023-05-07T09:17:13;9.35;;;6.85;;
37495;SDS011;23346;52.088;4.746;2023-05-07T09:19:39;9.13;;;6.85;;
37495;SDS011;23346;52.088;4.746;2023-05-07T09:22:05;11.18;;;6.88;;
37495;SDS011;23346;52.088;4.746;2023-05-07T09:24:34;11.70;;;7.38;;
37495;SDS011;23346;52.088;4.746;2023-05-07T09:27:02;10.77;;;6.60;;
37495;SDS011;23346;52.088;4.746;2023-05-07T09:29:28;8.95;;;6.47;;
37495;SDS011;23346;52.088;4.746;2023-05-07T09:31:55;9.77;;;7.03;;
37495;SDS011;23346;52.088;4.746;2023-05-07T09:34:21;13.07;;;6.97;;
37495;SDS011;23346;52.088;4.746;2023-05-07T09:36:47;11.50;;;7.00;;
37495;SDS011;23346;52.088;4.746;2023-05-07T09:39:13;8.63;;;7.00;;
37495;SDS011;23346;52.088;4.746;2023-05-07T09:41:43;8.07;;;6.32;;
37495;SDS011;23346;52.088;4.746;2023-05-07T09:44:09;10.13;;;6.80;;
37495;SDS011;23346;52.088;4.746;2023-05-07T09:46:36;11.07;;;7.30;;
37495;SDS011;23346;52.088;4.746;2023-05-07T09:49:04;10.90;;;6.72;;
37495;SDS011;23346;52.088;4.746;2023-05-07T09:51:38;11.95;;;6.72;;
37495;SDS011;23346;52.088;4.746;2023-05-07T09:54:05;10.52;;;7.57;;
37495;SDS011;23346;52.088;4.746;2023-05-07T09:56:32;9.13;;;7.00;;
37495;SDS011;23346;52.088;4.746;2023-05-07T09:59:01;13.95;;;7.32;;
37495;SDS011;23346;52.088;4.746;2023-05-07T10:01:29;8.88;;;5.93;;
37495;SDS011;23346;52.088;4.746;2023-05-07T10:03:56;9.50;;;5.90;;
37495;SDS011;23346;52.088;4.746;2023-05-07T10:06:23;8.90;;;5.57;;
37495;SDS011;23346;52.088;4.746;2023-05-07T10:08:50;9.50;;;5.57;;
37495;SDS011;23346;52.088;4.746;2023-05-07T10:11:17;7.25;;;5.47;;
37495;SDS011;23346;52.088;4.746;2023-05-07T10:13:43;8.02;;;6.00;;
37495;SDS011;23346;52.088;4.746;2023-05-07T10:16:09;11.75;;;7.00;;
37495;SDS011;23346;52.088;4.746;2023-05-07T10:18:36;11.73;;;6.85;;
37495;SDS011;23346;52.088;4.746;2023-05-07T10:21:15;11.77;;;7.53;;
37495;SDS011;23346;52.088;4.746;2023-05-07T10:23:43;13.77;;;6.65;;
37495;SDS011;23346;52.088;4.746;2023-05-07T10:26:10;9.05;;;6.38;;
37495;SDS011;23346;52.088;4.746;2023-05-07T10:28:38;10.27;;;6.53;;
37495;SDS011;23346;52.088;4.746;2023-05-07T10:31:15;8.52;;;6.03;;
37495;SDS011;23346;52.088;4.746;2023-05-07T10:33:45;11.45;;;6.78;;
37495;SDS011;23346;52.088;4.746;2023-05-07T10:36:11;7.95;;;5.07;;
37495;SDS011;23346;52.088;4.746;2023-05-07T10:38:38;7.57;;;5.05;;
37495;SDS011;23346;52.088;4.746;2023-05-07T10:41:05;10.18;;;6.22;;
37495;SDS011;23346;52.088;4.746;2023-05-07T10:43:41;11.07;;;5.82;;
37495;SDS011;23346;52.088;4.746;2023-05-07T10:46:14;9.20;;;5.18;;
37495;SDS011;23346;52.088;4.746;2023-05-07T10:49:06;9.38;;;5.32;;
37495;SDS011;23346;52.088;4.746;2023-05-07T10:51:32;8.98;;;4.80;;
37495;SDS011;23346;52.088;4.746;2023-05-07T10:56:36;8.85;;;4.38;;
37495;SDS011;23346;52.088;4.746;2023-05-07T11:01:49;9.93;;;4.00;;
37495;SDS011;23346;52.088;4.746;2023-05-07T11:04:15;6.00;;;3.65;;
37495;SDS011;23346;52.088;4.746;2023-05-07T11:06:47;10.43;;;4.13;;
37495;SDS011;23346;52.088;4.746;2023-05-07T11:09:53;7.07;;;4.05;;
37495;SDS011;23346;52.088;4.746;2023-05-07T11:12:14;11.88;;;3.53;;
37495;SDS011;23346;52.088;4.746;2023-05-07T11:14:44;7.28;;;3.10;;
37495;SDS011;23346;52.088;4.746;2023-05-07T11:17:10;5.70;;;3.28;;
37495;SDS011;23346;52.088;4.746;2023-05-07T11:19:52;5.97;;;3.40;;
37495;SDS011;23346;52.088;4.746;2023-05-07T11:22:52;6.70;;;2.78;;
37495;SDS011;23346;52.088;4.746;2023-05-07T11:25:11;8.90;;;3.10;;
37495;SDS011;23346;52.088;4.746;2023-05-07T11:27:42;8.63;;;3.72;;
37495;SDS011;23346;52.088;4.746;2023-05-07T11:30:08;7.78;;;4.00;;
37495;SDS011;23346;52.088;4.746;2023-05-07T11:32:35;6.68;;;3.55;;
37495;SDS011;23346;52.088;4.746;2023-05-07T11:35:01;5.75;;;3.72;;
37495;SDS011;23346;52.088;4.746;2023-05-07T11:37:27;6.78;;;3.38;;
37495;SDS011;23346;52.088;4.746;2023-05-07T11:40:28;7.20;;;3.40;;
37495;SDS011;23346;52.088;4.746;2023-05-07T11:42:47;8.32;;;3.90;;
37495;SDS011;23346;52.088;4.746;2023-05-07T11:45:14;8.27;;;3.42;;
37495;SDS011;23346;52.088;4.746;2023-05-07T11:47:48;7.75;;;3.67;;
37495;SDS011;23346;52.088;4.746;2023-05-07T11:50:14;6.80;;;3.88;;
37495;SDS011;23346;52.088;4.746;2023-05-07T11:52:40;7.10;;;3.95;;
37495;SDS011;23346;52.088;4.746;2023-05-07T11:55:17;6.15;;;3.53;;
37495;SDS011;23346;52.088;4.746;2023-05-07T11:57:44;8.52;;;3.63;;
37495;SDS011;23346;52.088;4.746;2023-05-07T12:00:10;7.18;;;3.40;;
37495;SDS011;23346;52.088;4.746;2023-05-07T12:02:36;6.35;;;2.92;;
37495;SDS011;23346;52.088;4.746;2023-05-07T12:05:03;8.45;;;3.83;;
37495;SDS011;23346;52.088;4.746;2023-05-07T12:07:29;5.30;;;2.55;;
37495;SDS011;23346;52.088;4.746;2023-05-07T12:09:56;4.68;;;2.92;;
37495;SDS011;23346;52.088;4.746;2023-05-07T12:12:22;7.95;;;2.90;;
37495;SDS011;23346;52.088;4.746;2023-05-07T12:14:48;7.07;;;5.03;;
37495;SDS011;23346;52.088;4.746;2023-05-07T12:17:15;47.60;;;25.95;;
37495;SDS011;23346;52.088;4.746;2023-05-07T12:19:42;15.23;;;8.73;;
37495;SDS011;23346;52.088;4.746;2023-05-07T12:22:08;14.18;;;7.13;;
37495;SDS011;23346;52.088;4.746;2023-05-07T12:24:43;8.25;;;4.35;;
37495;SDS011;23346;52.088;4.746;2023-05-07T12:27:09;9.35;;;2.55;;
37495;SDS011;23346;52.088;4.746;2023-05-07T12:29:35;8.50;;;3.20;;
37495;SDS011;23346;52.088;4.746;2023-05-07T12:32:04;6.18;;;2.55;;
37495;SDS011;23346;52.088;4.746;2023-05-07T12:34:31;6.05;;;2.95;;
37495;SDS011;23346;52.088;4.746;2023-05-07T12:36:56;8.00;;;2.78;;
37495;SDS011;23346;52.088;4.746;2023-05-07T12:39:22;6.75;;;2.85;;
37495;SDS011;23346;52.088;4.746;2023-05-07T12:41:52;6.13;;;3.30;;
37495;SDS011;23346;52.088;4.746;2023-05-07T12:44:19;6.97;;;3.50;;
37495;SDS011;23346;52.088;4.746;2023-05-07T12:46:46;6.20;;;3.55;;
37495;SDS011;23346;52.088;4.746;2023-05-07T12:49:12;7.68;;;3.33;;
37495;SDS011;23346;52.088;4.746;2023-05-07T12:51:38;21.45;;;15.32;;
37495;SDS011;23346;52.088;4.746;2023-05-07T12:54:04;37.05;;;31.30;;
37495;SDS011;23346;52.088;4.746;2023-05-07T12:56:30;34.92;;;23.98;;
37495;SDS011;23346;52.088;4.746;2023-05-07T12:58:57;19.42;;;12.75;;
37495;SDS011;23346;52.088;4.746;2023-05-07T13:01:28;17.75;;;12.52;;
37495;SDS011;23346;52.088;4.746;2023-05-07T13:03:54;14.15;;;10.68;;
37495;SDS011;23346;52.088;4.746;2023-05-07T13:06:20;15.77;;;9.48;;
37495;SDS011;23346;52.088;4.746;2023-05-07T13:08:46;12.00;;;8.40;;
37495;SDS011;23346;52.088;4.746;2023-05-07T13:11:12;15.63;;;11.38;;
37495;SDS011;23346;52.088;4.746;2023-05-07T13:13:39;9.65;;;7.93;;
37495;SDS011;23346;52.088;4.746;2023-05-07T13:16:05;15.52;;;12.43;;
37495;SDS011;23346;52.088;4.746;2023-05-07T13:18:32;16.98;;;12.02;;
37495;SDS011;23346;52.088;4.746;2023-05-07T13:20:58;27.52;;;14.10;;
37495;SDS011;23346;52.088;4.746;2023-05-07T13:23:25;11.10;;;7.95;;
37495;SDS011;23346;52.088;4.746;2023-05-07T13:25:51;14.88;;;9.25;;
37495;SDS011;23346;52.088;4.746;2023-05-07T13:28:20;14.27;;;8.52;;
37495;SDS011;23346;52.088;4.746;2023-05-07T13:30:46;13.52;;;9.38;;
37495;SDS011;23346;52.088;4.746;2023-05-07T13:33:13;16.55;;;10.43;;
37495;SDS011;23346;52.088;4.746;2023-05-07T13:35:39;20.65;;;9.82;;
37495;SDS011;23346;52.088;4.746;2023-05-07T13:38:05;1.15;;;1.02;;
37495;SDS011;23346;52.088;4.746;2023-05-07T13:40:31;0.50;;;0.50;;
37495;SDS011;23346;52.088;4.746;2023-05-07T13:42:57;1.05;;;0.77;;
37495;SDS011;23346;52.088;4.746;2023-05-07T13:45:24;0.80;;;0.63;;
37495;SDS011;23346;52.088;4.746;2023-05-07T13:47:50;13.80;;;1.50;;
37495;SDS011;23346;52.088;4.746;2023-05-07T13:50:17;5.25;;;1.48;;
37495;SDS011;23346;52.088;4.746;2023-05-07T13:52:43;0.40;;;0.40;;
37495;SDS011;23346;52.088;4.746;2023-05-07T13:55:18;1.45;;;1.02;;
37495;SDS011;23346;52.088;4.746;2023-05-07T13:57:45;4.90;;;1.23;;
37495;SDS011;23346;52.088;4.746;2023-05-07T14:00:11;0.20;;;0.20;;
37495;SDS011;23346;52.088;4.746;2023-05-07T14:02:38;2.65;;;0.30;;
37495;SDS011;23346;52.088;4.746;2023-05-07T14:05:04;0.90;;;0.70;;
37495;SDS011;23346;52.088;4.746;2023-05-07T14:07:30;1.00;;;1.00;;
37495;SDS011;23346;52.088;4.746;2023-05-07T14:09:56;0.85;;;0.77;;
37495;SDS011;23346;52.088;4.746;2023-05-07T14:12:22;0.80;;;0.80;;
37495;SDS011;23346;52.088;4.746;2023-05-07T14:14:48;2.50;;;1.33;;
37495;SDS011;23346;52.088;4.746;2023-05-07T14:17:15;1.90;;;1.75;;
37495;SDS011;23346;52.088;4.746;2023-05-07T14:19:41;1.65;;;1.55;;
37495;SDS011;23346;52.088;4.746;2023-05-07T14:22:07;3.22;;;1.45;;
37495;SDS011;23346;52.088;4.746;2023-05-07T14:24:33;0.45;;;0.45;;
37495;SDS011;23346;52.088;4.746;2023-05-07T14:26:59;1.33;;;0.80;;
37495;SDS011;23346;52.088;4.746;2023-05-07T14:29:25;1.00;;;0.90;;
37495;SDS011;23346;52.088;4.746;2023-05-07T14:31:51;1.17;;;0.77;;